KNEW/NEW METAR and TAF weather

Enter ICAO airport designator
Station Type Date Time Source
KNEW METAR 2024/02/26 16:53 UTC NOAA

KNEW 261653Z 20013KT 10SM CLR 24/16 A3011 RMK AO2 SLP190 T02440156


Station Type Date Time Source
KNEW Decoded METAR 2024/02/26 16:53 UTC NOAA

NEW ORLEANS LAKEFRONT AIRPORT , LA, United States (KNEW) 30-03N 90-02W 3M
Feb 26, 2024 - 11:53 AM EST / 2024.02.26 1653 UTC
Wind: from the SSW (200 degrees) at 15 MPH (13 KT):0
Visibility: 10 mile(s):0
Sky conditions: clear
Temperature: 75.9 F (24.4 C)
Dew Point: 60.1 F (15.6 C)
Relative Humidity: 57%
Pressure (altimeter): 30.11 in. Hg (1019 hPa)
ob: KNEW 261653Z 20013KT 10SM CLR 24/16 A3011 RMK AO2 SLP190 T02440156
cycle: 17

Station Type Date Time Source
KNEW TAF 2024/02/26 18:30 UTC NOAA